Time;durP1;ratioP1;P1;durP2;ratioP2;P2;SDS_P1;SDS_P2;PMS_P1;PMS_P2;Temp;Humidity;BMP_temperature;BMP_pressure;BME280_temperature;BME280_humidity;BME280_pressure;Samples;Min_cycle;Max_cycle;Signal;HPM_P1;HPM_P2
2021/07/27 00:01:31;;;;;;;8.75;5.30;;;21.10;91.50;;;;;;5018481;28;20056;-64
2021/07/27 00:03:57;;;;;;;7.47;5.75;;;21.00;91.50;;;;;;5016645;28;20488;-64
2021/07/27 00:06:22;;;;;;;7.50;5.40;;;21.00;91.50;;;;;;5015365;28;20040;-64
2021/07/27 00:08:48;;;;;;;6.82;5.55;;;21.00;91.60;;;;;;5015599;28;20044;-64
2021/07/27 00:11:14;;;;;;;9.45;6.30;;;21.00;91.60;;;;;;5018052;28;20044;-63
2021/07/27 00:13:39;;;;;;;8.45;5.57;;;21.00;91.60;;;;;;5018339;28;20025;-64
2021/07/27 00:16:07;;;;;;;8.75;5.70;;;21.00;91.80;;;;;;5016202;28;20073;-64
2021/07/27 00:18:33;;;;;;;10.90;6.38;;;21.00;91.70;;;;;;5011772;28;20033;-63
2021/07/27 00:21:01;;;;;;;8.60;6.13;;;20.90;91.70;;;;;;5018216;28;20044;-64
2021/07/27 00:23:26;;;;;;;7.97;5.90;;;21.00;91.80;;;;;;5009296;28;20416;-63
2021/07/27 00:25:52;;;;;;;8.30;6.20;;;20.90;91.80;;;;;;5020257;28;20033;-64
2021/07/27 00:28:18;;;;;;;9.77;5.82;;;20.90;91.90;;;;;;5018649;28;20029;-64
2021/07/27 00:30:44;;;;;;;9.73;6.05;;;20.90;91.90;;;;;;5020303;28;20033;-64
2021/07/27 00:33:10;;;;;;;10.65;6.45;;;20.90;92.00;;;;;;5018149;28;20496;-63
2021/07/27 00:35:35;;;;;;;9.82;6.45;;;20.90;92.00;;;;;;5017892;28;20081;-64
2021/07/27 00:38:17;;;;;;;8.30;6.88;;;20.90;92.10;;;;;;5015699;28;20033;-63
2021/07/27 00:40:44;;;;;;;10.82;7.03;;;20.90;92.10;;;;;;5020793;28;20486;-63
2021/07/27 00:43:15;;;;;;;9.30;6.95;;;20.90;92.10;;;;;;5019206;28;20384;-64
2021/07/27 00:45:41;;;;;;;11.00;7.15;;;20.90;92.20;;;;;;5019439;28;20029;-64
2021/07/27 00:48:08;;;;;;;9.80;7.22;;;20.80;92.30;;;;;;5016289;28;20026;-64
2021/07/27 00:50:35;;;;;;;8.20;7.05;;;20.80;92.30;;;;;;5021326;28;20034;-64
2021/07/27 00:53:01;;;;;;;10.20;6.35;;;20.80;92.40;;;;;;5017934;28;20025;-63
2021/07/27 00:55:28;;;;;;;9.77;6.65;;;20.80;92.40;;;;;;5019659;28;20030;-63
2021/07/27 00:57:55;;;;;;;8.77;6.60;;;20.80;92.40;;;;;;5018075;28;20034;-64
2021/07/27 01:00:21;;;;;;;9.52;6.88;;;20.80;92.40;;;;;;5021080;28;20029;-63
2021/07/27 01:02:47;;;;;;;11.30;6.90;;;20.80;92.40;;;;;;5018785;28;20082;-63
2021/07/27 01:05:13;;;;;;;11.98;6.95;;;20.80;92.50;;;;;;5019194;28;20038;-63
2021/07/27 01:07:40;;;;;;;9.23;7.28;;;20.80;92.50;;;;;;5016864;28;20077;-63
2021/07/27 01:10:08;;;;;;;9.45;6.88;;;20.80;92.50;;;;;;5019182;28;20034;-64
2021/07/27 01:12:34;;;;;;;9.95;6.82;;;20.80;92.50;;;;;;5016582;28;20121;-64
2021/07/27 01:15:00;;;;;;;10.02;6.63;;;20.70;92.50;;;;;;5021232;28;20626;-64
2021/07/27 01:17:26;;;;;;;8.52;6.57;;;20.80;92.50;;;;;;5018180;28;20496;-64
2021/07/27 01:43:50;;;;;;;7.18;5.47;;;20.60;92.90;;;;;;5016598;28;20478;-64
2021/07/27 01:46:17;;;;;;;7.95;5.80;;;20.60;92.70;;;;;;5014796;28;20408;-63
2021/07/27 01:48:44;;;;;;;7.70;5.53;;;20.60;92.70;;;;;;5018658;28;20424;-64
2021/07/27 01:51:10;;;;;;;7.63;6.07;;;20.60;92.70;;;;;;5016845;28;20037;-64
2021/07/27 01:53:54;;;;;;;7.15;5.35;;;20.50;92.50;;;;;;5018251;28;20037;-64
2021/07/27 01:56:21;;;;;;;10.43;5.45;;;20.50;92.60;;;;;;5016648;28;20124;-63
2021/07/27 01:58:49;;;;;;;6.90;6.03;;;20.50;92.40;;;;;;5017482;28;20143;-63
2021/07/27 02:01:15;;;;;;;5.93;5.20;;;20.50;92.40;;;;;;5017474;28;20060;-63
2021/07/27 02:03:41;;;;;;;8.23;5.50;;;20.50;92.30;;;;;;5015283;28;20026;-63
2021/07/27 02:06:06;;;;;;;7.40;5.57;;;20.50;92.30;;;;;;5014051;28;20026;-64
2021/07/27 02:08:32;;;;;;;5.97;5.05;;;20.50;92.10;;;;;;5016826;28;20034;-64
2021/07/27 02:11:04;;;;;;;8.23;5.35;;;20.40;92.10;;;;;;5018334;28;20025;-64
2021/07/27 02:13:31;;;;;;;8.77;5.40;;;20.40;92.00;;;;;;5019116;28;20087;-64
2021/07/27 02:15:59;;;;;;;7.93;5.30;;;20.40;92.00;;;;;;5016858;28;20099;-63
2021/07/27 02:18:25;;;;;;;6.97;5.25;;;20.40;92.10;;;;;;5020166;28;20069;-64
2021/07/27 02:20:51;;;;;;;6.95;5.63;;;20.40;92.00;;;;;;5017425;28;20056;-64
2021/07/27 02:23:18;;;;;;;8.80;5.72;;;20.30;92.10;;;;;;5015711;28;20037;-64
2021/07/27 02:25:44;;;;;;;9.55;5.70;;;20.30;92.00;;;;;;5016615;28;20030;-63
2021/07/27 02:28:13;;;;;;;6.57;5.13;;;20.30;91.90;;;;;;5015856;28;20125;-63
2021/07/27 02:30:43;;;;;;;10.18;6.03;;;20.30;91.90;;;;;;5019928;28;20094;-64
2021/07/27 02:33:08;;;;;;;7.57;5.68;;;20.30;91.80;;;;;;5013758;28;20299;-63
2021/07/27 02:35:36;;;;;;;8.05;5.50;;;20.30;91.80;;;;;;5015237;28;20118;-63
2021/07/27 02:38:03;;;;;;;7.38;5.63;;;20.30;91.80;;;;;;5015847;28;20029;-63
2021/07/27 02:40:32;;;;;;;6.70;5.70;;;20.30;91.90;;;;;;5014988;28;20029;-63
2021/07/27 02:43:01;;;;;;;6.35;5.22;;;20.30;91.90;;;;;;5016288;28;20029;-64
2021/07/27 02:45:27;;;;;;;6.78;5.43;;;20.30;91.80;;;;;;5017290;28;20029;-63
2021/07/27 02:47:53;;;;;;;9.88;5.78;;;20.30;91.80;;;;;;5014619;28;20026;-63
2021/07/27 02:50:19;;;;;;;7.97;5.57;;;20.30;91.70;;;;;;5020177;28;20040;-64
2021/07/27 02:52:45;;;;;;;7.35;5.40;;;20.30;91.70;;;;;;5018733;28;20387;-64
2021/07/27 02:55:11;;;;;;;6.68;5.65;;;20.30;91.70;;;;;;5018094;28;20037;-64
2021/07/27 02:57:37;;;;;;;7.72;6.30;;;20.30;91.70;;;;;;5015764;28;20068;-63
2021/07/27 03:00:04;;;;;;;7.07;5.65;;;20.30;91.60;;;;;;5016043;28;20022;-63
2021/07/27 03:02:40;;;;;;;6.63;5.85;;;20.20;91.60;;;;;;5017070;28;20068;-63
2021/07/27 03:05:07;;;;;;;8.32;6.25;;;20.30;91.60;;;;;;5015703;28;20025;-63
2021/07/27 03:07:37;;;;;;;8.23;6.25;;;20.20;91.60;;;;;;5015864;28;20067;-64
2021/07/27 03:10:19;;;;;;;7.35;5.80;;;20.20;91.50;;;;;;5016593;28;20406;-64
2021/07/27 03:12:55;;;;;;;7.57;6.25;;;20.20;91.60;;;;;;5016635;28;20159;-63
2021/07/27 03:15:25;;;;;;;7.00;5.38;;;20.20;91.60;;;;;;5014873;28;20383;-63
2021/07/27 03:17:57;;;;;;;9.38;5.88;;;20.20;91.50;;;;;;5016205;28;20022;-63
2021/07/27 03:20:23;;;;;;;;;;;20.20;91.40;;;;;;5015904;28;20045;-64
2021/07/27 03:22:53;;;;;;;7.40;5.50;;;20.10;91.30;;;;;;5017841;28;20012;-64
2021/07/27 03:25:19;;;;;;;8.37;6.07;;;20.10;91.50;;;;;;5019094;28;20080;-63
2021/07/27 03:27:47;;;;;;;9.57;6.05;;;20.10;91.50;;;;;;5014830;28;20026;-63
2021/07/27 03:30:15;;;;;;;8.57;6.10;;;20.10;91.40;;;;;;5016107;28;20108;-64
2021/07/27 03:32:41;;;;;;;10.00;6.22;;;20.10;91.40;;;;;;5016715;28;20072;-63
2021/07/27 03:35:07;;;;;;;10.10;6.93;;;20.10;91.60;;;;;;5019584;28;20683;-64
2021/07/27 03:37:33;;;;;;;8.30;6.38;;;20.10;91.50;;;;;;5013875;28;20077;-63
2021/07/27 03:40:00;;;;;;;7.07;6.05;;;20.00;91.50;;;;;;5014093;28;20029;-64
2021/07/27 03:42:26;;;;;;;5.57;5.05;;;20.10;91.70;;;;;;5017183;28;20460;-63
2021/07/27 03:45:00;;;;;;;7.80;5.93;;;20.00;91.70;;;;;;5018494;28;20030;-64
2021/07/27 03:47:26;;;;;;;8.90;6.70;;;20.10;91.70;;;;;;5016974;28;20572;-63
2021/07/27 03:49:56;;;;;;;10.77;6.82;;;20.10;91.60;;;;;;5017883;28;20040;-63
2021/07/27 03:52:22;;;;;;;7.82;6.38;;;20.00;91.50;;;;;;5016827;28;20059;-63
2021/07/27 03:54:47;;;;;;;9.23;6.13;;;20.00;91.50;;;;;;5017588;28;20536;-63
2021/07/27 03:57:13;;;;;;;8.48;6.45;;;20.00;91.50;;;;;;5014445;28;20026;-63
2021/07/27 03:59:39;;;;;;;9.68;6.57;;;20.00;91.60;;;;;;5021095;28;20026;-64
2021/07/27 04:02:04;;;;;;;8.70;6.50;;;20.00;91.50;;;;;;5021141;28;20060;-63
2021/07/27 04:04:34;;;;;;;12.45;5.90;;;20.10;91.50;;;;;;5020569;28;20033;-63
2021/07/27 04:06:59;;;;;;;8.80;6.32;;;20.00;91.60;;;;;;5020123;28;20030;-63
2021/07/27 04:09:25;;;;;;;7.68;6.20;;;20.10;91.60;;;;;;5019350;28;20036;-64
2021/07/27 04:11:51;;;;;;;9.05;6.00;;;20.10;91.50;;;;;;5021980;28;20037;-64
2021/07/27 04:14:17;;;;;;;9.32;7.10;;;20.00;91.50;;;;;;5023247;28;20025;-63
2021/07/27 04:16:42;;;;;;;10.77;6.75;;;20.10;91.50;;;;;;5018489;28;20022;-63
2021/07/27 04:19:08;;;;;;;8.45;6.45;;;20.10;91.50;;;;;;5017888;28;20171;-63
2021/07/27 04:21:34;;;;;;;7.97;6.47;;;20.00;91.40;;;;;;5020777;28;20056;-63
2021/07/27 04:24:01;;;;;;;9.63;7.05;;;20.00;91.40;;;;;;5020927;28;20096;-63
2021/07/27 04:26:30;;;;;;;9.02;6.35;;;20.00;91.50;;;;;;5017118;28;20072;-63
2021/07/27 04:28:56;;;;;;;8.93;7.03;;;20.10;91.50;;;;;;5021370;28;20492;-63
2021/07/27 04:31:22;;;;;;;9.52;6.88;;;20.00;91.40;;;;;;5019608;28;20117;-63
2021/07/27 04:33:48;;;;;;;10.15;7.25;;;20.00;91.30;;;;;;5022590;28;20487;-64
2021/07/27 04:36:14;;;;;;;10.25;6.97;;;20.00;91.40;;;;;;5017829;28;20038;-64
2021/07/27 04:38:40;;;;;;;9.68;6.82;;;20.00;91.40;;;;;;5018617;28;20587;-64
2021/07/27 04:41:07;;;;;;;8.85;6.78;;;20.00;91.30;;;;;;5020915;28;20022;-64
2021/07/27 04:43:33;;;;;;;7.20;6.13;;;20.00;91.30;;;;;;5020212;28;20572;-64
2021/07/27 04:46:03;;;;;;;10.07;7.22;;;20.00;91.40;;;;;;5015583;28;20124;-64
2021/07/27 04:48:29;;;;;;;8.13;6.50;;;20.10;91.30;;;;;;5018686;28;20260;-63
2021/07/27 04:50:55;;;;;;;8.23;6.63;;;20.00;91.20;;;;;;5019553;28;20380;-64
2021/07/27 04:53:25;;;;;;;7.72;5.97;;;20.10;91.20;;;;;;5022054;28;20030;-63
2021/07/27 04:55:51;;;;;;;12.40;6.53;;;20.10;91.20;;;;;;5017637;28;20037;-63
2021/07/27 04:58:17;;;;;;;7.57;6.63;;;20.10;91.10;;;;;;5018437;28;20060;-63
2021/07/27 05:00:43;;;;;;;9.63;6.90;;;20.10;91.10;;;;;;5018333;28;20039;-63
2021/07/27 05:03:09;;;;;;;10.73;6.60;;;20.10;91.10;;;;;;5019526;28;20033;-63
2021/07/27 05:05:35;;;;;;;8.45;6.75;;;20.10;91.10;;;;;;5019101;28;20022;-63
2021/07/27 05:08:02;;;;;;;7.97;6.20;;;20.10;91.10;;;;;;5017301;28;20538;-68
2021/07/27 05:10:29;;;;;;;7.32;5.82;;;20.10;91.20;;;;;;5017250;28;20109;-64
2021/07/27 05:12:55;;;;;;;7.47;6.45;;;20.20;91.30;;;;;;5017146;28;20029;-64
2021/07/27 05:15:21;;;;;;;11.68;7.20;;;20.40;91.20;;;;;;5017072;28;20051;-64
2021/07/27 05:17:51;;;;;;;9.32;6.65;;;20.50;90.90;;;;;;5018279;28;20511;-63
2021/07/27 05:20:17;;;;;;;9.60;8.30;;;20.50;90.80;;;;;;5016411;28;20025;-64
2021/07/27 05:22:42;;;;;;;11.40;7.97;;;20.70;90.30;;;;;;5020733;28;20034;-65
2021/07/27 05:25:09;;;;;;;8.32;7.03;;;20.70;90.40;;;;;;5018101;28;20029;-64
2021/07/27 05:27:36;;;;;;;10.80;8.35;;;20.60;90.50;;;;;;5017961;28;20380;-64
2021/07/27 05:30:03;;;;;;;11.25;7.53;;;20.60;90.40;;;;;;5019682;28;20042;-65
2021/07/27 05:32:29;;;;;;;9.95;7.72;;;20.70;90.40;;;;;;5018961;28;20037;-64
2021/07/27 05:34:54;;;;;;;12.52;9.23;;;20.60;90.50;;;;;;5020228;28;20021;-65
2021/07/27 05:37:20;;;;;;;11.93;9.48;;;20.70;90.50;;;;;;5020322;28;20065;-65
2021/07/27 05:39:46;;;;;;;10.55;8.27;;;20.60;90.50;;;;;;5014685;28;20033;-65
2021/07/27 05:42:12;;;;;;;11.55;9.15;;;20.60;90.60;;;;;;5017686;28;20091;-65
2021/07/27 05:44:38;;;;;;;11.10;9.15;;;20.60;90.50;;;;;;5021492;28;20033;-65
2021/07/27 05:47:04;;;;;;;10.05;7.45;;;20.60;90.50;;;;;;5017931;28;20048;-65
2021/07/27 05:49:31;;;;;;;14.82;9.63;;;20.50;90.60;;;;;;5019386;28;20064;-65
2021/07/27 05:51:57;;;;;;;12.80;8.90;;;20.50;90.60;;;;;;5020899;28;20053;-64
2021/07/27 05:54:24;;;;;;;14.52;11.13;;;20.50;90.70;;;;;;5017776;28;20025;-65
2021/07/27 05:56:51;;;;;;;14.07;10.35;;;20.50;90.70;;;;;;5015685;28;20083;-64
2021/07/27 05:59:18;;;;;;;12.38;10.48;;;20.50;90.70;;;;;;5018851;28;20515;-64
2021/07/27 06:01:44;;;;;;;13.18;9.38;;;20.50;90.70;;;;;;5019234;28;20068;-65
2021/07/27 06:04:10;;;;;;;12.77;9.38;;;20.50;90.80;;;;;;5018853;28;20119;-65
2021/07/27 06:06:36;;;;;;;12.48;10.32;;;20.50;90.80;;;;;;5016497;28;20543;-65
2021/07/27 06:09:07;;;;;;;13.55;10.80;;;20.50;90.90;;;;;;5017136;28;20022;-65
2021/07/27 06:11:36;;;;;;;16.58;10.10;;;20.50;90.80;;;;;;5017921;28;20060;-66
2021/07/27 06:14:03;;;;;;;16.80;11.77;;;20.40;90.90;;;;;;5021589;28;20080;-66
2021/07/27 06:16:30;;;;;;;14.23;11.10;;;20.40;91.00;;;;;;5011086;28;20017;-64
2021/07/27 06:18:56;;;;;;;12.75;9.60;;;20.30;91.10;;;;;;5012127;28;20030;-64
2021/07/27 06:21:22;;;;;;;13.18;10.05;;;20.30;91.20;;;;;;5018265;28;20101;-65
2021/07/27 06:23:47;;;;;;;13.80;11.15;;;20.30;91.40;;;;;;5016667;28;20499;-68
2021/07/27 06:26:13;;;;;;;13.85;10.45;;;20.30;91.30;;;;;;5013932;28;20499;-64
2021/07/27 06:28:39;;;;;;;15.68;10.02;;;20.30;91.30;;;;;;5015814;28;20105;-64
2021/07/27 06:31:11;;;;;;;15.80;11.65;;;20.40;91.30;;;;;;5015741;28;20038;-65
2021/07/27 06:33:41;;;;;;;10.13;7.03;;;20.50;91.40;;;;;;5007406;28;20421;-64
2021/07/27 06:36:07;;;;;;;17.50;11.10;;;20.60;91.60;;;;;;5014878;28;20480;-65
2021/07/27 06:38:33;;;;;;;16.80;10.90;;;20.80;90.90;;;;;;5013967;28;20052;-64
2021/07/27 06:41:00;;;;;;;12.20;9.00;;;20.90;91.00;;;;;;5017193;28;20112;-65
2021/07/27 06:43:26;;;;;;;13.73;9.43;;;21.00;90.70;;;;;;5013624;28;20037;-65
2021/07/27 06:45:55;;;;;;;12.32;8.90;;;21.10;90.60;;;;;;5013723;28;20518;-65
2021/07/27 06:48:22;;;;;;;12.88;9.90;;;21.20;90.40;;;;;;5017961;28;20030;-64
2021/07/27 06:50:47;;;;;;;14.82;10.82;;;21.30;89.90;;;;;;5017224;28;20030;-66
2021/07/27 06:53:14;;;;;;;13.75;9.88;;;21.30;89.40;;;;;;5018527;28;20079;-63
2021/07/27 06:55:39;;;;;;;13.80;9.55;;;21.30;89.80;;;;;;5016339;28;20531;-63
2021/07/27 06:58:05;;;;;;;16.58;10.45;;;21.40;89.10;;;;;;5014203;28;20021;-66
2021/07/27 07:00:31;;;;;;;11.75;9.55;;;21.30;89.30;;;;;;5015866;28;20389;-63
2021/07/27 07:02:56;;;;;;;13.23;9.07;;;21.40;89.40;;;;;;5015872;28;20029;-63
2021/07/27 07:05:22;;;;;;;14.43;10.88;;;21.40;88.90;;;;;;5017251;28;20037;-62
2021/07/27 07:07:48;;;;;;;10.23;7.25;;;21.40;88.30;;;;;;5010729;28;20061;-63
2021/07/27 07:10:13;;;;;;;15.40;10.50;;;21.40;88.80;;;;;;5007718;28;20494;-63
2021/07/27 07:12:39;;;;;;;11.15;7.90;;;21.40;88.80;;;;;;5016291;28;20107;-63
2021/07/27 07:15:05;;;;;;;10.52;8.35;;;21.40;89.10;;;;;;5013296;28;20037;-63
2021/07/27 07:17:31;;;;;;;12.27;7.90;;;21.40;89.20;;;;;;5010403;28;20155;-63
2021/07/27 07:19:57;;;;;;;12.60;10.52;;;21.50;88.80;;;;;;5004076;28;20061;-62
2021/07/27 07:22:24;;;;;;;14.13;9.93;;;21.40;88.40;;;;;;5015479;28;20415;-63
2021/07/27 07:24:50;;;;;;;12.00;8.80;;;21.50;88.60;;;;;;5012100;28;20040;-63
2021/07/27 07:27:15;;;;;;;10.57;8.00;;;21.60;88.50;;;;;;5013505;28;20447;-63
2021/07/27 07:29:41;;;;;;;13.75;9.20;;;21.70;88.70;;;;;;5012747;28;20052;-64
2021/07/27 07:32:07;;;;;;;12.23;9.02;;;21.70;88.20;;;;;;5011716;28;20052;-65
2021/07/27 07:34:33;;;;;;;15.20;9.95;;;21.80;88.30;;;;;;5017090;28;20018;-64
2021/07/27 07:37:00;;;;;;;12.25;8.77;;;22.00;88.20;;;;;;5013316;28;20203;-63
2021/07/27 07:39:29;;;;;;;11.27;7.97;;;22.10;87.50;;;;;;4998094;28;20026;-64
2021/07/27 07:41:55;;;;;;;8.45;6.82;;;22.30;87.10;;;;;;5018154;28;20532;-64
2021/07/27 07:44:22;;;;;;;10.07;7.38;;;22.30;87.60;;;;;;5018151;28;20509;-65
2021/07/27 07:46:47;;;;;;;8.82;6.75;;;22.30;86.30;;;;;;5016021;28;20112;-63
2021/07/27 07:49:16;;;;;;;11.90;8.23;;;22.30;85.90;;;;;;5017248;28;20151;-64
2021/07/27 07:51:49;;;;;;;12.70;10.23;;;22.30;85.70;;;;;;5012677;28;20034;-63
2021/07/27 07:54:15;;;;;;;9.75;8.43;;;22.30;85.70;;;;;;5013646;28;20034;-63
2021/07/27 07:56:42;;;;;;;11.25;7.20;;;22.30;85.80;;;;;;5016195;28;20104;-63
2021/07/27 07:59:08;;;;;;;10.80;8.02;;;22.30;86.30;;;;;;5014483;28;20430;-63
2021/07/27 08:01:33;;;;;;;8.75;6.10;;;22.30;86.10;;;;;;5021374;28;20154;-63
2021/07/27 08:03:59;;;;;;;9.27;7.15;;;22.30;86.00;;;;;;5020785;28;20030;-63
2021/07/27 08:06:25;;;;;;;9.45;6.63;;;22.50;86.30;;;;;;5017545;28;20855;-63
2021/07/27 08:08:51;;;;;;;9.73;7.05;;;22.60;85.60;;;;;;5017871;28;20030;-63
2021/07/27 08:11:17;;;;;;;10.77;8.05;;;22.70;85.30;;;;;;5018615;28;20037;-63
2021/07/27 08:13:42;;;;;;;10.23;7.43;;;22.80;84.10;;;;;;5020631;28;20101;-64
2021/07/27 08:16:09;;;;;;;11.18;8.13;;;22.80;84.50;;;;;;5016224;28;20034;-64
2021/07/27 08:18:35;;;;;;;10.98;6.25;;;22.70;83.30;;;;;;5013186;28;20044;-64
2021/07/27 08:21:01;;;;;;;8.20;6.35;;;22.70;83.70;;;;;;5018288;28;20026;-63
2021/07/27 08:23:27;;;;;;;10.93;7.45;;;22.70;84.30;;;;;;5014037;28;20056;-63
2021/07/27 08:25:52;;;;;;;13.23;10.25;;;22.60;83.90;;;;;;5017180;28;20022;-63
2021/07/27 08:28:18;;;;;;;14.07;10.43;;;22.50;83.40;;;;;;5017424;28;20029;-63
2021/07/27 08:30:44;;;;;;;14.05;9.85;;;22.30;83.70;;;;;;5017947;28;20030;-63
2021/07/27 08:33:10;;;;;;;8.88;6.97;;;22.20;84.30;;;;;;5015920;28;20030;-63
2021/07/27 08:35:35;;;;;;;9.35;7.50;;;22.20;84.90;;;;;;5014788;28;20478;-63
2021/07/27 08:38:01;;;;;;;13.60;9.52;;;22.20;85.20;;;;;;5019076;28;20029;-63
2021/07/27 08:40:28;;;;;;;8.73;6.72;;;22.20;85.00;;;;;;5019069;28;20472;-63
2021/07/27 08:42:56;;;;;;;8.55;6.63;;;22.10;85.10;;;;;;5016754;28;20112;-63
2021/07/27 08:45:22;;;;;;;13.82;8.40;;;22.10;85.30;;;;;;5013866;28;20038;-63
2021/07/27 08:47:49;;;;;;;12.35;8.05;;;22.00;88.90;;;;;;5017139;28;20041;-63
2021/07/27 08:50:16;;;;;;;11.25;7.70;;;21.80;89.10;;;;;;5018060;28;20037;-63
2021/07/27 08:52:42;;;;;;;14.88;8.85;;;21.80;89.70;;;;;;5015570;28;20030;-63
2021/07/27 08:55:09;;;;;;;10.32;8.63;;;21.70;90.20;;;;;;5015344;28;20030;-64
2021/07/27 08:57:40;;;;;;;10.52;7.95;;;21.80;90.20;;;;;;5017592;28;20029;-64
2021/07/27 09:00:06;;;;;;;8.98;6.82;;;21.90;90.00;;;;;;5015308;28;20029;-64
2021/07/27 09:02:32;;;;;;;9.60;7.20;;;22.00;90.00;;;;;;5019824;28;20108;-64
2021/07/27 09:05:08;;;;;;;7.93;5.90;;;22.10;89.30;;;;;;5014578;28;20116;-64
2021/07/27 09:07:34;;;;;;;10.90;7.18;;;22.10;88.70;;;;;;5015909;28;20666;-64
2021/07/27 09:10:11;;;;;;;9.63;7.00;;;22.20;88.50;;;;;;5018195;28;20037;-64
2021/07/27 09:12:36;;;;;;;8.18;6.68;;;22.30;87.70;;;;;;5019430;28;20053;-64
2021/07/27 09:15:06;;;;;;;5.90;5.20;;;22.30;87.40;;;;;;5012957;28;20029;-64
2021/07/27 09:17:32;;;;;;;7.07;5.75;;;22.40;87.70;;;;;;5014444;28;20033;-63
2021/07/27 09:19:58;;;;;;;8.70;6.20;;;22.50;87.20;;;;;;5011775;28;20025;-63
2021/07/27 09:22:24;;;;;;;7.10;6.03;;;22.60;86.20;;;;;;5017793;28;20772;-64
2021/07/27 09:24:50;;;;;;;7.43;6.55;;;22.70;85.40;;;;;;5016570;28;20037;-64
2021/07/27 09:27:25;;;;;;;8.25;6.13;;;22.70;84.70;;;;;;5016551;28;20030;-64
2021/07/27 09:29:51;;;;;;;11.35;6.88;;;22.70;84.80;;;;;;5017564;28;20594;-64
2021/07/27 09:32:19;;;;;;;8.68;5.72;;;22.60;84.10;;;;;;5016282;28;20041;-64
2021/07/27 09:34:45;;;;;;;8.15;6.55;;;22.60;84.50;;;;;;5019146;28;20076;-63
2021/07/27 09:37:10;;;;;;;8.15;6.25;;;22.50;84.20;;;;;;5013837;28;20085;-64
2021/07/27 09:39:37;;;;;;;7.65;5.95;;;22.50;84.60;;;;;;5013688;28;20527;-64
2021/07/27 09:42:08;;;;;;;7.28;5.97;;;22.60;84.50;;;;;;5018998;28;20032;-64
2021/07/27 09:44:35;;;;;;;;;;;22.70;84.20;;;;;;5019314;28;20033;-64
2021/07/27 09:47:02;;;;;;;9.35;6.30;;;22.90;82.50;;;;;;5015800;28;19960;-64
2021/07/27 09:49:28;;;;;;;6.78;5.82;;;23.10;82.10;;;;;;5010496;28;20069;-64
2021/07/27 09:51:56;;;;;;;7.78;4.93;;;23.30;82.10;;;;;;5017236;28;20029;-64
2021/07/27 09:54:23;;;;;;;9.00;7.18;;;23.30;82.20;;;;;;5017309;28;20068;-63
2021/07/27 09:56:54;;;;;;;9.10;6.53;;;23.20;81.70;;;;;;5016395;28;20460;-64
2021/07/27 09:59:24;;;;;;;12.88;8.80;;;23.10;82.60;;;;;;5017307;28;20117;-64
2021/07/27 10:01:57;;;;;;;11.52;8.35;;;22.90;84.00;;;;;;5019820;28;20046;-64
2021/07/27 10:04:36;;;;;;;9.02;7.00;;;22.70;85.50;;;;;;5015833;28;20033;-64
2021/07/27 10:07:02;;;;;;;8.88;7.05;;;22.70;86.30;;;;;;5013220;28;20033;-63
2021/07/27 10:09:36;;;;;;;9.27;7.25;;;22.60;86.90;;;;;;5016763;28;20109;-64
2021/07/27 10:12:06;;;;;;;9.50;7.15;;;22.60;87.20;;;;;;4997627;28;20571;-64
2021/07/27 10:14:39;;;;;;;10.75;8.23;;;22.60;87.10;;;;;;5017957;28;20033;-64
2021/07/27 10:17:06;;;;;;;7.50;6.68;;;22.60;87.40;;;;;;5011572;28;20029;-64
2021/07/27 10:19:50;;;;;;;10.07;7.30;;;22.70;87.20;;;;;;5012544;28;20100;-64
2021/07/27 10:22:17;;;;;;;9.93;7.35;;;22.90;86.70;;;;;;5017578;28;20036;-64
2021/07/27 10:24:49;;;;;;;12.63;7.03;;;23.00;85.60;;;;;;5014956;28;20131;-63
2021/07/27 10:27:18;;;;;;;9.10;7.65;;;23.00;85.00;;;;;;5015820;28;20108;-63
2021/07/27 10:29:44;;;;;;;11.85;8.68;;;23.20;84.80;;;;;;5016054;28;20065;-64
2021/07/27 10:32:14;;;;;;;11.73;8.77;;;23.30;84.20;;;;;;5014380;28;20037;-64
2021/07/27 10:34:43;;;;;;;14.23;10.25;;;23.40;84.00;;;;;;5014966;28;20049;-63
2021/07/27 10:37:10;;;;;;;9.50;7.50;;;23.40;82.50;;;;;;5014985;28;20372;-64
2021/07/27 10:40:06;;;;;;;12.60;9.02;;;23.50;83.00;;;;;;5013408;28;20045;-64
2021/07/27 10:42:39;;;;;;;16.83;10.68;;;23.80;83.10;;;;;;5001621;28;20393;-64
2021/07/27 10:45:26;;;;;;;12.63;9.68;;;24.00;82.20;;;;;;5014483;28;20029;-64
2021/07/27 10:47:54;;;;;;;14.13;10.43;;;24.20;80.90;;;;;;5013449;28;20034;-67
2021/07/27 10:50:31;;;;;;;13.25;9.25;;;24.30;80.80;;;;;;5012759;28;20041;-67
2021/07/27 10:53:06;;;;;;;12.30;8.82;;;24.40;81.30;;;;;;5012392;28;20052;-66
2021/07/27 10:55:36;;;;;;;15.18;10.18;;;24.50;80.70;;;;;;5006043;28;20552;-65
2021/07/27 10:58:06;;;;;;;14.57;10.50;;;24.60;79.50;;;;;;5011308;28;20122;-68
2021/07/27 11:00:34;;;;;;;12.32;9.25;;;24.60;78.50;;;;;;5011111;28;20037;-66
2021/07/27 11:03:00;;;;;;;10.95;7.18;;;24.40;79.10;;;;;;5011935;28;20069;-65
2021/07/27 11:05:27;;;;;;;11.80;8.02;;;24.40;79.40;;;;;;5006523;28;20534;-67
2021/07/27 11:07:53;;;;;;;13.98;9.43;;;24.40;79.70;;;;;;5011901;28;20037;-68
2021/07/27 11:10:21;;;;;;;10.68;7.70;;;24.50;78.10;;;;;;5012025;28;20044;-68
2021/07/27 11:12:47;;;;;;;9.23;6.72;;;24.60;78.60;;;;;;5014568;28;20026;-67
2021/07/27 11:15:23;;;;;;;10.13;7.32;;;24.70;78.60;;;;;;5000786;28;20485;-68
2021/07/27 11:18:00;;;;;;;11.10;7.78;;;24.70;78.30;;;;;;5011242;28;20388;-65
2021/07/27 11:20:33;;;;;;;13.52;8.13;;;24.90;76.90;;;;;;5012443;28;20613;-65
2021/07/27 11:23:19;;;;;;;10.90;8.23;;;25.00;76.00;;;;;;5015802;28;20349;-66
2021/07/27 11:25:57;;;;;;;7.28;5.88;;;25.10;74.70;;;;;;5013813;28;20040;-66
2021/07/27 11:28:36;;;;;;;10.40;7.80;;;25.30;75.40;;;;;;5014955;28;20471;-65
2021/07/27 11:31:03;;;;;;;9.30;6.75;;;25.20;74.10;;;;;;5014836;28;20073;-65
2021/07/27 11:33:29;;;;;;;9.38;5.63;;;25.20;73.80;;;;;;5012655;28;20038;-65
2021/07/27 11:35:55;;;;;;;6.75;5.85;;;25.30;74.90;;;;;;5011436;28;20029;-66
2021/07/27 11:38:23;;;;;;;7.93;6.28;;;25.40;74.80;;;;;;5010730;28;20398;-65
2021/07/27 11:41:01;;;;;;;8.20;6.22;;;25.40;74.40;;;;;;5015484;28;20150;-65
2021/07/27 11:43:31;;;;;;;10.55;8.20;;;25.40;75.10;;;;;;5018961;28;20100;-62
2021/07/27 11:46:08;;;;;;;7.82;6.40;;;25.50;73.50;;;;;;5017036;28;20021;-66
2021/07/27 11:48:35;;;;;;;8.25;6.70;;;25.50;75.20;;;;;;5012245;28;20184;-65
2021/07/27 11:51:01;;;;;;;9.27;7.35;;;25.60;75.00;;;;;;5016935;28;20121;-65
2021/07/27 11:53:31;;;;;;;8.40;6.30;;;25.70;72.30;;;;;;5015945;28;20464;-65
2021/07/27 11:56:09;;;;;;;9.48;6.93;;;25.80;72.50;;;;;;5014311;28;20503;-65
2021/07/27 11:58:34;;;;;;;8.23;6.38;;;25.90;73.60;;;;;;5015829;28;20022;-65
2021/07/27 12:01:01;;;;;;;12.02;7.95;;;26.00;73.10;;;;;;5017130;28;20052;-65
2021/07/27 12:03:27;;;;;;;11.20;7.80;;;26.00;70.20;;;;;;5016895;28;20060;-65
2021/07/27 12:05:56;;;;;;;9.40;7.03;;;26.30;67.80;;;;;;5010053;28;20052;-65
2021/07/27 12:08:22;;;;;;;8.13;6.53;;;26.00;69.00;;;;;;5015596;28;20034;-63
2021/07/27 12:10:48;;;;;;;10.65;6.88;;;25.80;70.30;;;;;;5015858;28;20034;-64
2021/07/27 12:13:14;;;;;;;8.90;6.40;;;25.50;71.80;;;;;;5018114;28;20088;-63
2021/07/27 12:15:40;;;;;;;8.55;6.47;;;25.50;72.00;;;;;;5011084;28;20037;-64
2021/07/27 12:18:05;;;;;;;8.77;7.03;;;25.50;72.70;;;;;;5011669;28;20026;-65
2021/07/27 12:20:31;;;;;;;9.30;6.65;;;25.40;71.20;;;;;;5013843;28;20088;-65
2021/07/27 12:22:57;;;;;;;10.63;7.10;;;25.40;72.20;;;;;;5018070;28;20036;-64
2021/07/27 12:25:23;;;;;;;10.57;7.20;;;25.30;72.20;;;;;;5018380;28;20116;-64
2021/07/27 12:27:49;;;;;;;9.75;6.80;;;25.30;71.90;;;;;;5017947;28;20029;-64
2021/07/27 12:30:15;;;;;;;7.95;7.05;;;25.20;72.20;;;;;;5020872;28;20038;-64
2021/07/27 12:32:41;;;;;;;10.35;6.60;;;25.10;72.50;;;;;;5019827;28;20380;-64
2021/07/27 12:35:07;;;;;;;7.18;5.90;;;25.10;72.80;;;;;;5010867;28;20030;-65
2021/07/27 12:37:37;;;;;;;9.57;6.22;;;25.30;73.00;;;;;;5018791;28;20037;-65
2021/07/27 12:40:06;;;;;;;9.02;6.70;;;25.70;72.30;;;;;;5031869;28;20026;-66
2021/07/27 12:42:31;;;;;;;8.05;6.57;;;25.90;71.90;;;;;;5019560;28;20037;-67
2021/07/27 12:44:58;;;;;;;10.93;6.70;;;26.10;70.30;;;;;;5017053;28;20025;-68
2021/07/27 12:47:23;;;;;;;9.45;6.50;;;26.60;69.40;;;;;;5018210;28;20068;-64
2021/07/27 12:49:49;;;;;;;8.77;5.82;;;27.20;69.30;;;;;;5014305;28;20065;-65
2021/07/27 12:52:15;;;;;;;7.47;5.90;;;27.80;67.10;;;;;;5020847;28;20037;-65
2021/07/27 12:54:40;;;;;;;12.95;7.72;;;28.70;64.80;;;;;;5017560;28;20510;-63
2021/07/27 12:57:06;;;;;;;9.18;6.30;;;29.70;59.50;;;;;;5017317;28;20034;-65
2021/07/27 12:59:33;;;;;;;9.48;5.88;;;30.50;57.50;;;;;;5019176;28;20033;-63
2021/07/27 13:01:59;;;;;;;7.47;5.97;;;31.10;57.70;;;;;;5016739;28;20025;-64
2021/07/27 13:04:25;;;;;;;5.82;5.15;;;31.80;55.10;;;;;;5016752;28;20040;-64
2021/07/27 13:06:51;;;;;;;7.22;5.70;;;32.50;53.50;;;;;;5016415;28;20034;-65
2021/07/27 13:09:16;;;;;;;9.05;6.18;;;32.50;52.20;;;;;;5019313;28;20033;-65